createdAt,value
2023-09-27T00:00:37.829Z,82.94
2023-09-27T00:05:35.136Z,82.93
2023-09-27T00:10:32.016Z,83.07
2023-09-27T00:15:29.351Z,82.92
2023-09-27T00:20:26.406Z,83.47
2023-09-27T00:25:23.314Z,83.53
2023-09-27T00:30:20.552Z,84.04
2023-09-27T00:35:24.485Z,84.16
2023-09-27T00:40:24.385Z,84.00
2023-09-27T00:45:21.530Z,83.92
2023-09-27T00:50:18.636Z,84.40
2023-09-27T00:55:21.387Z,84.92
2023-09-27T01:00:19.587Z,84.96
2023-09-27T01:05:18.259Z,84.72
2023-09-27T01:10:15.825Z,85.33
2023-09-27T01:15:12.857Z,86.03
2023-09-27T01:20:13.909Z,86.15
2023-09-27T01:25:16.386Z,86.51
2023-09-27T01:30:13.228Z,86.58
2023-09-27T01:35:10.139Z,87.03
2023-09-27T01:40:10.593Z,86.77
2023-09-27T01:45:07.909Z,86.93
2023-09-27T01:50:05.065Z,86.72
2023-09-27T01:55:01.952Z,86.85
2023-09-27T01:59:58.877Z,86.91
2023-09-27T02:04:56.217Z,86.78
2023-09-27T02:09:53.040Z,86.71
2023-09-27T02:14:49.793Z,87.11
2023-09-27T02:19:46.581Z,86.99
2023-09-27T02:24:43.290Z,86.55
2023-09-27T02:29:40.102Z,86.50
2023-09-27T02:34:37.259Z,86.15
2023-09-27T02:39:34.324Z,86.01
2023-09-27T02:44:31.446Z,85.83
2023-09-27T02:49:28.350Z,85.80
2023-09-27T02:54:25.500Z,86.13
2023-09-27T02:59:22.382Z,85.82
2023-09-27T03:04:19.185Z,86.12
2023-09-27T03:09:16.346Z,86.30
2023-09-27T03:14:13.140Z,86.32
2023-09-27T03:19:10.633Z,86.37
2023-09-27T03:24:07.910Z,86.66
2023-09-27T03:29:05.922Z,86.73
2023-09-27T03:34:02.664Z,86.96
2023-09-27T03:38:59.391Z,87.03
2023-09-27T03:43:56.354Z,87.27
2023-09-27T03:48:53.426Z,87.56
2023-09-27T03:53:50.527Z,87.73
2023-09-27T03:58:47.409Z,87.73
2023-09-27T04:03:44.726Z,87.61
2023-09-27T04:08:41.529Z,87.72
2023-09-27T04:13:38.344Z,87.95
2023-09-27T04:18:35.367Z,88.25
2023-09-27T04:23:32.201Z,88.20
2023-09-27T04:28:28.970Z,88.22
2023-09-27T04:33:26.093Z,88.31
2023-09-27T04:38:22.967Z,88.30
2023-09-27T04:43:19.895Z,88.22
2023-09-27T04:48:16.990Z,88.20
2023-09-27T04:53:13.832Z,88.39
2023-09-27T04:58:10.576Z,88.63
2023-09-27T05:03:09.177Z,88.56
2023-09-27T05:08:06.522Z,88.55
2023-09-27T05:13:04.992Z,88.69
2023-09-27T05:18:01.895Z,88.58
2023-09-27T05:22:58.701Z,88.72
2023-09-27T05:27:56.338Z,88.58
2023-09-27T05:32:53.381Z,88.64
2023-09-27T05:37:50.649Z,88.70
2023-09-27T05:42:47.475Z,88.81
2023-09-27T05:47:44.512Z,88.91
2023-09-27T05:52:46.305Z,88.95
2023-09-27T05:57:43.192Z,89.22
2023-09-27T06:02:40.052Z,89.37
2023-09-27T06:07:36.920Z,89.70
2023-09-27T06:12:34.022Z,90.04
2023-09-27T06:17:30.864Z,90.19
2023-09-27T06:22:28.780Z,90.32
2023-09-27T06:27:25.694Z,90.83
2023-09-27T06:32:24.275Z,91.15
2023-09-27T06:37:21.293Z,91.52
2023-09-27T06:42:18.441Z,91.79
2023-09-27T06:47:16.047Z,92.05
2023-09-27T06:52:13.826Z,92.51
2023-09-27T06:57:10.546Z,92.79
2023-09-27T07:02:07.691Z,93.22
2023-09-27T07:07:04.432Z,93.46
2023-09-27T07:12:01.665Z,94.13
2023-09-27T07:17:01.463Z,94.12
2023-09-27T07:21:58.528Z,94.36
2023-09-27T07:26:55.767Z,94.75
2023-09-27T07:31:52.608Z,94.33
2023-09-27T07:36:49.600Z,95.11
2023-09-27T07:41:46.539Z,94.97
2023-09-27T07:46:43.453Z,94.76
2023-09-27T07:51:40.309Z,95.07
2023-09-27T07:56:41.768Z,95.00
2023-09-27T08:01:38.775Z,94.96
2023-09-27T08:06:36.033Z,95.15
2023-09-27T08:11:33.318Z,95.13
2023-09-27T08:16:30.887Z,94.90
2023-09-27T08:21:27.680Z,94.24
2023-09-27T08:26:24.746Z,93.76
2023-09-27T08:31:21.612Z,93.41
2023-09-27T08:36:18.437Z,93.34
2023-09-27T08:41:16.889Z,92.79
2023-09-27T08:46:13.792Z,92.08
2023-09-27T08:51:10.725Z,92.06
2023-09-27T08:56:08.224Z,92.75
2023-09-27T09:01:09.440Z,91.36
2023-09-27T09:06:12.384Z,89.09
2023-09-27T09:11:18.248Z,87.27
2023-09-27T09:16:15.514Z,86.69
2023-09-27T09:21:20.132Z,85.30
2023-09-27T09:26:31.546Z,84.01
2023-09-27T09:31:30.113Z,84.72
2023-09-27T09:36:30.464Z,83.83
2023-09-27T09:41:45.462Z,80.31
2023-09-27T09:46:44.126Z,81.59
2023-09-27T09:51:43.113Z,79.91
2023-09-27T09:56:51.227Z,78.39
2023-09-27T10:02:01.338Z,78.88
2023-09-27T10:07:00.259Z,75.40
2023-09-27T10:11:57.955Z,75.15
2023-09-27T10:16:55.469Z,73.77
2023-09-27T10:22:06.646Z,70.33
2023-09-27T10:27:04.201Z,66.55
2023-09-27T10:32:02.583Z,67.53
2023-09-27T10:37:17.376Z,68.58
2023-09-27T10:42:44.327Z,65.70
2023-09-27T10:47:42.141Z,65.87
2023-09-27T10:52:40.184Z,65.31
2023-09-27T10:57:37.028Z,64.81
2023-09-27T11:02:34.435Z,66.14
2023-09-27T11:07:48.338Z,65.77
2023-09-27T11:12:45.251Z,66.32
2023-09-27T11:17:42.179Z,67.92
2023-09-27T11:22:39.128Z,68.02
2023-09-27T11:27:35.933Z,68.32
2023-09-27T11:32:49.808Z,68.13
2023-09-27T11:37:46.707Z,68.31
2023-09-27T11:42:50.657Z,67.26
2023-09-27T11:47:51.885Z,67.14
2023-09-27T11:52:49.162Z,67.07
2023-09-27T11:57:46.120Z,67.20
2023-09-27T12:02:55.672Z,67.36
2023-09-27T12:07:53.922Z,67.31
2023-09-27T12:12:50.866Z,67.38
2023-09-27T12:17:47.715Z,67.76
2023-09-27T12:22:44.785Z,67.60
2023-09-27T12:27:41.789Z,66.84
2023-09-27T12:32:38.695Z,66.68
2023-09-27T12:37:37.068Z,67.39
2023-09-27T12:42:34.085Z,67.06
2023-09-27T12:47:33.240Z,67.37
2023-09-27T12:52:30.204Z,67.61
2023-09-27T12:57:26.986Z,67.41
2023-09-27T13:02:23.966Z,67.31
2023-09-27T13:07:20.860Z,67.04
2023-09-27T13:12:18.096Z,66.90
2023-09-27T13:17:15.052Z,67.03
2023-09-27T13:22:12.622Z,66.28
2023-09-27T13:27:10.130Z,66.24
2023-09-27T13:32:07.184Z,65.76
2023-09-27T13:37:04.221Z,64.53
2023-09-27T13:42:01.248Z,63.61
2023-09-27T13:46:58.329Z,63.11
2023-09-27T13:51:55.247Z,62.75
2023-09-27T13:56:52.097Z,62.24
2023-09-27T14:01:49.551Z,62.24
2023-09-27T14:06:46.928Z,62.80
2023-09-27T14:11:44.213Z,63.35
2023-09-27T14:16:42.121Z,63.78
2023-09-27T14:21:40.533Z,64.46
2023-09-27T14:26:38.063Z,65.36
2023-09-27T14:31:35.303Z,66.20
2023-09-27T14:36:33.982Z,66.79
2023-09-27T14:41:30.851Z,67.63
2023-09-27T14:46:28.001Z,68.14
2023-09-27T14:51:24.941Z,68.61
2023-09-27T14:56:23.170Z,69.13
2023-09-27T15:01:20.356Z,69.51
2023-09-27T15:06:17.283Z,69.87
2023-09-27T15:16:35.616Z,70.61
2023-09-27T15:21:32.567Z,71.06
2023-09-27T15:26:35.384Z,71.31
2023-09-27T15:31:32.664Z,71.59
2023-09-27T15:36:30.418Z,71.68
2023-09-27T15:41:38.261Z,71.78
2023-09-27T15:46:41.203Z,71.93
2023-09-27T15:51:38.966Z,71.84
2023-09-27T15:56:36.000Z,72.11
2023-09-27T16:01:32.756Z,71.85
2023-09-27T16:06:31.345Z,71.76
2023-09-27T16:11:31.403Z,71.64
2023-09-27T16:16:28.673Z,71.71
2023-09-27T16:21:25.470Z,71.49
2023-09-27T16:26:22.734Z,70.79
2023-09-27T16:31:19.590Z,70.67
2023-09-27T16:36:18.235Z,70.43
2023-09-27T16:41:19.333Z,70.50
2023-09-27T16:46:16.468Z,70.56
2023-09-27T16:51:13.245Z,70.58
2023-09-27T16:56:10.016Z,70.28
2023-09-27T17:01:07.059Z,70.30
2023-09-27T17:06:04.677Z,70.50
2023-09-27T17:11:02.258Z,70.33
2023-09-27T17:15:59.141Z,70.53
2023-09-27T17:20:55.939Z,70.47
2023-09-27T17:25:52.726Z,70.00
2023-09-27T17:30:49.755Z,69.39
2023-09-27T17:35:46.818Z,69.16
2023-09-27T17:40:43.765Z,68.78
2023-09-27T17:45:40.637Z,68.00
2023-09-27T17:50:37.817Z,67.87
2023-09-27T17:55:34.785Z,67.03
2023-09-27T18:00:32.100Z,66.69
2023-09-27T18:05:29.578Z,67.19
2023-09-27T18:10:26.374Z,67.27
2023-09-27T18:15:28.091Z,67.10
2023-09-27T18:20:25.591Z,67.60
2023-09-27T18:25:22.857Z,68.08
2023-09-27T18:30:19.679Z,68.20
2023-09-27T18:35:16.870Z,68.76
2023-09-27T18:40:13.756Z,69.37
2023-09-27T18:45:11.189Z,69.89
2023-09-27T18:50:08.261Z,70.24
2023-09-27T18:55:05.517Z,71.27
2023-09-27T19:00:02.315Z,71.94
2023-09-27T19:04:59.248Z,71.42
2023-09-27T19:09:56.242Z,69.45
2023-09-27T19:14:53.316Z,68.14
2023-09-27T19:19:50.132Z,65.99
2023-09-27T19:24:47.008Z,63.95
2023-09-27T19:29:45.565Z,63.40
2023-09-27T19:34:42.400Z,63.50
2023-09-27T19:39:39.163Z,63.54
2023-09-27T19:44:36.817Z,63.48
2023-09-27T19:49:34.355Z,63.84
2023-09-27T19:54:31.187Z,64.20
2023-09-27T19:59:28.218Z,64.81
2023-09-27T20:04:25.082Z,65.33
2023-09-27T20:09:21.902Z,65.96
2023-09-27T20:14:18.737Z,66.54
2023-09-27T20:19:15.953Z,67.05
2023-09-27T20:24:12.713Z,67.14
2023-09-27T20:29:09.475Z,67.52
2023-09-27T20:34:06.596Z,67.99
2023-09-27T20:39:03.482Z,67.86
2023-09-27T20:44:00.578Z,68.22
2023-09-27T20:48:57.688Z,68.07
2023-09-27T20:53:55.520Z,68.14
2023-09-27T20:58:52.608Z,68.28
2023-09-27T21:03:49.444Z,68.08
2023-09-27T21:08:46.244Z,68.48
2023-09-27T21:13:43.292Z,68.06
2023-09-27T21:18:40.105Z,68.13
2023-09-27T21:23:36.848Z,68.02
2023-09-27T21:28:33.685Z,67.95
2023-09-27T21:33:30.441Z,67.58
2023-09-27T21:38:28.081Z,67.61
2023-09-27T21:43:28.718Z,67.88
2023-09-27T21:48:25.572Z,67.63
2023-09-27T21:53:22.724Z,67.99
2023-09-27T21:58:19.513Z,68.38
2023-09-27T22:03:18.646Z,68.50
2023-09-27T22:08:24.612Z,68.45
2023-09-27T22:13:24.328Z,68.87
2023-09-27T22:18:21.752Z,68.71
2023-09-27T22:23:33.384Z,68.72
2023-09-27T22:28:32.482Z,68.68
2023-09-27T22:33:34.463Z,68.83
2023-09-27T22:38:51.127Z,68.75
2023-09-27T22:43:53.817Z,68.39
2023-09-27T22:48:51.774Z,68.53
2023-09-27T22:53:48.640Z,68.91
2023-09-27T22:58:45.940Z,68.73
2023-09-27T23:03:42.860Z,68.79
2023-09-27T23:08:39.729Z,68.68
2023-09-27T23:13:38.037Z,69.02
2023-09-27T23:18:35.394Z,69.01
2023-09-27T23:23:38.268Z,69.46
2023-09-27T23:28:37.884Z,69.53
2023-09-27T23:33:47.375Z,69.58
2023-09-27T23:38:57.301Z,69.67
2023-09-27T23:43:54.400Z,69.99
2023-09-27T23:48:54.118Z,69.91
2023-09-27T23:53:51.921Z,70.37
2023-09-27T23:59:43.954Z,71.30
